sensor_id;sensor_type;location;lat;lon;timestamp;P1;durP1;ratioP1;P2;durP2;ratioP2
49123;SDS011;48506;48.202;16.274;2023-03-14T00:00:09;9.55;;;4.70;;
49123;SDS011;48506;48.202;16.274;2023-03-14T00:02:38;6.23;;;2.83;;
49123;SDS011;48506;48.202;16.274;2023-03-14T00:05:04;9.50;;;4.43;;
49123;SDS011;48506;48.202;16.274;2023-03-14T00:07:34;5.50;;;3.20;;
49123;SDS011;48506;48.202;16.274;2023-03-14T00:10:03;11.65;;;4.93;;
49123;SDS011;48506;48.202;16.274;2023-03-14T00:12:31;10.68;;;4.72;;
49123;SDS011;48506;48.202;16.274;2023-03-14T00:14:57;8.00;;;3.83;;
49123;SDS011;48506;48.202;16.274;2023-03-14T00:17:26;5.47;;;3.20;;
49123;SDS011;48506;48.202;16.274;2023-03-14T00:19:52;8.70;;;4.18;;
49123;SDS011;48506;48.202;16.274;2023-03-14T00:22:19;6.75;;;4.13;;
49123;SDS011;48506;48.202;16.274;2023-03-14T00:24:45;5.20;;;4.18;;
49123;SDS011;48506;48.202;16.274;2023-03-14T00:27:14;7.45;;;3.65;;
49123;SDS011;48506;48.202;16.274;2023-03-14T00:29:40;10.13;;;4.85;;
49123;SDS011;48506;48.202;16.274;2023-03-14T00:32:08;8.10;;;3.97;;
49123;SDS011;48506;48.202;16.274;2023-03-14T00:34:33;10.20;;;4.07;;
49123;SDS011;48506;48.202;16.274;2023-03-14T00:37:00;8.13;;;4.30;;
49123;SDS011;48506;48.202;16.274;2023-03-14T00:39:25;8.98;;;4.53;;
49123;SDS011;48506;48.202;16.274;2023-03-14T00:41:52;7.32;;;3.97;;
49123;SDS011;48506;48.202;16.274;2023-03-14T00:44:17;6.07;;;3.58;;
49123;SDS011;48506;48.202;16.274;2023-03-14T00:46:43;5.53;;;3.95;;
49123;SDS011;48506;48.202;16.274;2023-03-14T00:49:09;6.57;;;3.70;;
49123;SDS011;48506;48.202;16.274;2023-03-14T00:51:35;6.30;;;3.55;;
49123;SDS011;48506;48.202;16.274;2023-03-14T00:54:01;9.73;;;3.90;;
49123;SDS011;48506;48.202;16.274;2023-03-14T00:56:27;8.07;;;3.92;;
49123;SDS011;48506;48.202;16.274;2023-03-14T00:58:56;7.07;;;3.85;;
49123;SDS011;48506;48.202;16.274;2023-03-14T01:01:23;11.93;;;3.70;;
49123;SDS011;48506;48.202;16.274;2023-03-14T01:03:52;12.68;;;4.78;;
49123;SDS011;48506;48.202;16.274;2023-03-14T01:08:47;7.20;;;4.78;;
49123;SDS011;48506;48.202;16.274;2023-03-14T01:11:14;11.18;;;3.67;;
49123;SDS011;48506;48.202;16.274;2023-03-14T01:13:42;7.63;;;3.65;;
49123;SDS011;48506;48.202;16.274;2023-03-14T01:16:09;11.40;;;3.92;;
49123;SDS011;48506;48.202;16.274;2023-03-14T01:18:37;6.60;;;3.42;;
49123;SDS011;48506;48.202;16.274;2023-03-14T01:21:09;10.82;;;3.78;;
49123;SDS011;48506;48.202;16.274;2023-03-14T01:23:37;7.88;;;3.92;;
49123;SDS011;48506;48.202;16.274;2023-03-14T01:26:02;8.10;;;4.55;;
49123;SDS011;48506;48.202;16.274;2023-03-14T01:28:28;8.68;;;3.60;;
49123;SDS011;48506;48.202;16.274;2023-03-14T01:30:54;10.35;;;4.47;;
49123;SDS011;48506;48.202;16.274;2023-03-14T01:33:20;8.45;;;3.47;;
49123;SDS011;48506;48.202;16.274;2023-03-14T01:35:49;7.93;;;3.67;;
49123;SDS011;48506;48.202;16.274;2023-03-14T01:38:15;7.43;;;3.30;;
49123;SDS011;48506;48.202;16.274;2023-03-14T01:40:42;9.93;;;4.15;;
49123;SDS011;48506;48.202;16.274;2023-03-14T01:43:14;7.13;;;4.15;;
49123;SDS011;48506;48.202;16.274;2023-03-14T01:48:37;10.85;;;3.20;;
49123;SDS011;48506;48.202;16.274;2023-03-14T01:51:11;8.77;;;3.83;;
49123;SDS011;48506;48.202;16.274;2023-03-14T01:53:42;7.53;;;4.07;;
49123;SDS011;48506;48.202;16.274;2023-03-14T01:56:09;9.02;;;3.38;;
49123;SDS011;48506;48.202;16.274;2023-03-14T01:58:39;6.70;;;3.35;;
49123;SDS011;48506;48.202;16.274;2023-03-14T02:01:10;6.50;;;3.25;;
49123;SDS011;48506;48.202;16.274;2023-03-14T02:03:38;5.32;;;3.25;;
49123;SDS011;48506;48.202;16.274;2023-03-14T02:06:12;5.45;;;2.75;;
49123;SDS011;48506;48.202;16.274;2023-03-14T02:08:42;9.10;;;3.40;;
49123;SDS011;48506;48.202;16.274;2023-03-14T02:11:12;7.22;;;3.28;;
49123;SDS011;48506;48.202;16.274;2023-03-14T02:13:39;7.18;;;3.60;;
49123;SDS011;48506;48.202;16.274;2023-03-14T02:16:05;8.13;;;3.55;;
49123;SDS011;48506;48.202;16.274;2023-03-14T02:18:31;4.82;;;3.28;;
49123;SDS011;48506;48.202;16.274;2023-03-14T02:21:07;5.32;;;3.50;;
49123;SDS011;48506;48.202;16.274;2023-03-14T02:23:52;8.23;;;4.25;;
49123;SDS011;48506;48.202;16.274;2023-03-14T02:26:36;5.82;;;3.38;;
49123;SDS011;48506;48.202;16.274;2023-03-14T02:29:05;6.93;;;3.92;;
49123;SDS011;48506;48.202;16.274;2023-03-14T02:31:31;14.02;;;3.83;;
49123;SDS011;48506;48.202;16.274;2023-03-14T02:33:58;7.00;;;4.25;;
49123;SDS011;48506;48.202;16.274;2023-03-14T02:36:25;10.00;;;4.10;;
49123;SDS011;48506;48.202;16.274;2023-03-14T02:41:21;7.63;;;3.70;;
49123;SDS011;48506;48.202;16.274;2023-03-14T02:43:47;7.80;;;4.18;;
49123;SDS011;48506;48.202;16.274;2023-03-14T02:46:14;10.90;;;5.03;;
49123;SDS011;48506;48.202;16.274;2023-03-14T02:48:43;10.35;;;4.68;;
49123;SDS011;48506;48.202;16.274;2023-03-14T02:51:19;8.70;;;4.05;;
49123;SDS011;48506;48.202;16.274;2023-03-14T02:53:46;5.38;;;3.63;;
49123;SDS011;48506;48.202;16.274;2023-03-14T02:56:12;8.60;;;4.00;;
49123;SDS011;48506;48.202;16.274;2023-03-14T02:58:38;11.02;;;4.50;;
49123;SDS011;48506;48.202;16.274;2023-03-14T03:01:04;7.70;;;4.00;;
49123;SDS011;48506;48.202;16.274;2023-03-14T03:03:30;7.95;;;4.68;;
49123;SDS011;48506;48.202;16.274;2023-03-14T03:05:57;10.70;;;4.32;;
49123;SDS011;48506;48.202;16.274;2023-03-14T03:08:23;7.63;;;4.28;;
49123;SDS011;48506;48.202;16.274;2023-03-14T03:10:51;7.38;;;4.05;;
49123;SDS011;48506;48.202;16.274;2023-03-14T03:13:17;9.18;;;4.78;;
49123;SDS011;48506;48.202;16.274;2023-03-14T03:15:44;7.78;;;4.07;;
49123;SDS011;48506;48.202;16.274;2023-03-14T03:18:10;9.05;;;3.97;;
49123;SDS011;48506;48.202;16.274;2023-03-14T03:20:36;6.93;;;4.00;;
49123;SDS011;48506;48.202;16.274;2023-03-14T03:23:02;7.82;;;3.78;;
49123;SDS011;48506;48.202;16.274;2023-03-14T03:25:29;8.38;;;3.72;;
49123;SDS011;48506;48.202;16.274;2023-03-14T03:27:55;5.00;;;3.28;;
49123;SDS011;48506;48.202;16.274;2023-03-14T03:30:22;10.30;;;4.65;;
49123;SDS011;48506;48.202;16.274;2023-03-14T03:32:48;6.72;;;3.72;;
49123;SDS011;48506;48.202;16.274;2023-03-14T03:35:13;10.95;;;4.25;;
49123;SDS011;48506;48.202;16.274;2023-03-14T03:37:40;10.10;;;4.55;;
49123;SDS011;48506;48.202;16.274;2023-03-14T03:40:07;7.68;;;4.40;;
49123;SDS011;48506;48.202;16.274;2023-03-14T03:42:34;11.85;;;4.82;;
49123;SDS011;48506;48.202;16.274;2023-03-14T03:45:01;9.55;;;4.00;;
49123;SDS011;48506;48.202;16.274;2023-03-14T03:47:29;9.25;;;4.20;;
49123;SDS011;48506;48.202;16.274;2023-03-14T03:49:56;7.20;;;4.28;;
49123;SDS011;48506;48.202;16.274;2023-03-14T03:52:22;7.30;;;4.28;;
49123;SDS011;48506;48.202;16.274;2023-03-14T03:54:48;7.90;;;4.30;;
49123;SDS011;48506;48.202;16.274;2023-03-14T03:57:14;6.88;;;4.07;;
49123;SDS011;48506;48.202;16.274;2023-03-14T03:59:40;6.82;;;4.18;;
49123;SDS011;48506;48.202;16.274;2023-03-14T04:02:06;9.65;;;4.35;;
49123;SDS011;48506;48.202;16.274;2023-03-14T04:04:32;9.18;;;4.45;;
49123;SDS011;48506;48.202;16.274;2023-03-14T04:06:58;8.48;;;5.35;;
49123;SDS011;48506;48.202;16.274;2023-03-14T04:09:24;6.72;;;4.75;;
49123;SDS011;48506;48.202;16.274;2023-03-14T04:11:50;8.88;;;4.50;;
49123;SDS011;48506;48.202;16.274;2023-03-14T04:14:16;7.90;;;5.03;;
49123;SDS011;48506;48.202;16.274;2023-03-14T04:16:42;9.38;;;5.40;;
49123;SDS011;48506;48.202;16.274;2023-03-14T04:19:08;10.82;;;5.28;;
49123;SDS011;48506;48.202;16.274;2023-03-14T04:21:34;8.80;;;5.70;;
49123;SDS011;48506;48.202;16.274;2023-03-14T04:24:00;12.35;;;5.03;;
49123;SDS011;48506;48.202;16.274;2023-03-14T04:26:26;11.57;;;5.03;;
49123;SDS011;48506;48.202;16.274;2023-03-14T04:28:52;10.57;;;5.53;;
49123;SDS011;48506;48.202;16.274;2023-03-14T04:31:18;11.57;;;5.00;;
49123;SDS011;48506;48.202;16.274;2023-03-14T04:33:46;9.70;;;4.75;;
49123;SDS011;48506;48.202;16.274;2023-03-14T04:36:12;8.93;;;5.00;;
49123;SDS011;48506;48.202;16.274;2023-03-14T04:38:39;9.80;;;4.75;;
49123;SDS011;48506;48.202;16.274;2023-03-14T04:41:05;8.75;;;4.88;;
49123;SDS011;48506;48.202;16.274;2023-03-14T04:43:32;8.40;;;4.57;;
49123;SDS011;48506;48.202;16.274;2023-03-14T04:45:59;6.20;;;4.43;;
49123;SDS011;48506;48.202;16.274;2023-03-14T04:48:25;7.47;;;4.50;;
49123;SDS011;48506;48.202;16.274;2023-03-14T04:50:52;6.80;;;4.25;;
49123;SDS011;48506;48.202;16.274;2023-03-14T04:53:18;10.13;;;3.85;;
49123;SDS011;48506;48.202;16.274;2023-03-14T04:55:48;7.45;;;4.70;;
49123;SDS011;48506;48.202;16.274;2023-03-14T04:58:18;11.13;;;4.80;;
49123;SDS011;48506;48.202;16.274;2023-03-14T05:00:45;9.55;;;5.25;;
49123;SDS011;48506;48.202;16.274;2023-03-14T05:03:14;8.40;;;4.30;;
49123;SDS011;48506;48.202;16.274;2023-03-14T05:05:41;6.72;;;3.67;;
49123;SDS011;48506;48.202;16.274;2023-03-14T05:08:07;10.77;;;5.60;;
49123;SDS011;48506;48.202;16.274;2023-03-14T05:10:33;7.55;;;4.53;;
49123;SDS011;48506;48.202;16.274;2023-03-14T05:12:59;8.80;;;4.28;;
49123;SDS011;48506;48.202;16.274;2023-03-14T05:15:25;7.28;;;4.20;;
49123;SDS011;48506;48.202;16.274;2023-03-14T05:17:51;11.43;;;4.63;;
49123;SDS011;48506;48.202;16.274;2023-03-14T05:20:17;11.32;;;4.25;;
49123;SDS011;48506;48.202;16.274;2023-03-14T05:22:43;5.15;;;3.60;;
49123;SDS011;48506;48.202;16.274;2023-03-14T05:25:09;10.05;;;4.75;;
49123;SDS011;48506;48.202;16.274;2023-03-14T05:27:35;9.50;;;4.00;;
49123;SDS011;48506;48.202;16.274;2023-03-14T05:30:03;9.15;;;4.30;;
49123;SDS011;48506;48.202;16.274;2023-03-14T05:32:30;7.63;;;4.18;;
49123;SDS011;48506;48.202;16.274;2023-03-14T05:34:56;7.70;;;3.85;;
49123;SDS011;48506;48.202;16.274;2023-03-14T05:37:27;9.65;;;5.20;;
49123;SDS011;48506;48.202;16.274;2023-03-14T05:39:53;5.82;;;3.78;;
49123;SDS011;48506;48.202;16.274;2023-03-14T05:42:19;5.82;;;3.80;;
49123;SDS011;48506;48.202;16.274;2023-03-14T05:44:46;7.55;;;4.50;;
49123;SDS011;48506;48.202;16.274;2023-03-14T05:47:11;7.13;;;3.63;;
49123;SDS011;48506;48.202;16.274;2023-03-14T05:49:37;7.75;;;3.80;;
49123;SDS011;48506;48.202;16.274;2023-03-14T05:52:04;8.38;;;4.57;;
49123;SDS011;48506;48.202;16.274;2023-03-14T05:54:30;5.00;;;3.88;;
49123;SDS011;48506;48.202;16.274;2023-03-14T05:56:56;7.03;;;3.88;;
49123;SDS011;48506;48.202;16.274;2023-03-14T05:59:24;5.32;;;3.95;;
49123;SDS011;48506;48.202;16.274;2023-03-14T06:01:50;9.75;;;5.05;;
49123;SDS011;48506;48.202;16.274;2023-03-14T06:04:16;4.65;;;3.42;;
49123;SDS011;48506;48.202;16.274;2023-03-14T06:06:42;7.15;;;5.03;;
49123;SDS011;48506;48.202;16.274;2023-03-14T06:09:07;5.90;;;3.88;;
49123;SDS011;48506;48.202;16.274;2023-03-14T06:11:33;6.97;;;4.25;;
49123;SDS011;48506;48.202;16.274;2023-03-14T06:13:59;9.50;;;4.30;;
49123;SDS011;48506;48.202;16.274;2023-03-14T06:16:25;10.05;;;7.43;;
49123;SDS011;48506;48.202;16.274;2023-03-14T06:18:51;10.40;;;4.68;;
49123;SDS011;48506;48.202;16.274;2023-03-14T06:21:17;4.82;;;3.97;;
49123;SDS011;48506;48.202;16.274;2023-03-14T06:23:44;8.73;;;4.68;;
49123;SDS011;48506;48.202;16.274;2023-03-14T06:26:11;8.68;;;4.40;;
49123;SDS011;48506;48.202;16.274;2023-03-14T06:28:37;16.88;;;9.15;;
49123;SDS011;48506;48.202;16.274;2023-03-14T06:31:04;34.30;;;16.55;;
49123;SDS011;48506;48.202;16.274;2023-03-14T06:33:30;42.30;;;20.98;;
49123;SDS011;48506;48.202;16.274;2023-03-14T06:35:57;15.55;;;8.90;;
49123;SDS011;48506;48.202;16.274;2023-03-14T06:38:23;13.35;;;6.57;;
49123;SDS011;48506;48.202;16.274;2023-03-14T06:40:49;14.98;;;6.65;;
49123;SDS011;48506;48.202;16.274;2023-03-14T06:43:15;13.05;;;6.80;;
49123;SDS011;48506;48.202;16.274;2023-03-14T06:45:42;8.93;;;5.47;;
49123;SDS011;48506;48.202;16.274;2023-03-14T06:48:08;7.93;;;4.55;;
49123;SDS011;48506;48.202;16.274;2023-03-14T06:50:34;9.85;;;5.68;;
49123;SDS011;48506;48.202;16.274;2023-03-14T06:53:00;9.18;;;4.68;;
49123;SDS011;48506;48.202;16.274;2023-03-14T06:55:26;11.40;;;5.32;;
49123;SDS011;48506;48.202;16.274;2023-03-14T06:57:52;8.43;;;5.13;;
49123;SDS011;48506;48.202;16.274;2023-03-14T07:00:18;8.35;;;5.68;;
49123;SDS011;48506;48.202;16.274;2023-03-14T07:02:45;11.13;;;5.45;;
49123;SDS011;48506;48.202;16.274;2023-03-14T07:05:11;9.93;;;5.00;;
49123;SDS011;48506;48.202;16.274;2023-03-14T07:07:37;8.55;;;4.20;;
49123;SDS011;48506;48.202;16.274;2023-03-14T07:10:03;13.57;;;5.60;;
49123;SDS011;48506;48.202;16.274;2023-03-14T07:12:30;11.30;;;5.78;;
49123;SDS011;48506;48.202;16.274;2023-03-14T07:14:55;9.65;;;5.30;;
49123;SDS011;48506;48.202;16.274;2023-03-14T07:17:22;13.77;;;5.05;;
49123;SDS011;48506;48.202;16.274;2023-03-14T07:19:49;11.38;;;4.38;;
49123;SDS011;48506;48.202;16.274;2023-03-14T07:22:15;8.45;;;3.70;;
49123;SDS011;48506;48.202;16.274;2023-03-14T07:24:42;10.43;;;4.10;;
49123;SDS011;48506;48.202;16.274;2023-03-14T07:27:08;6.93;;;3.75;;
49123;SDS011;48506;48.202;16.274;2023-03-14T07:29:34;5.45;;;2.65;;
49123;SDS011;48506;48.202;16.274;2023-03-14T07:32:00;4.88;;;1.75;;
49123;SDS011;48506;48.202;16.274;2023-03-14T07:34:26;4.03;;;1.60;;
49123;SDS011;48506;48.202;16.274;2023-03-14T07:36:51;2.25;;;0.68;;
49123;SDS011;48506;48.202;16.274;2023-03-14T07:39:20;8.27;;;0.80;;
49123;SDS011;48506;48.202;16.274;2023-03-14T07:41:46;1.17;;;0.57;;
49123;SDS011;48506;48.202;16.274;2023-03-14T07:44:12;2.15;;;0.50;;
49123;SDS011;48506;48.202;16.274;2023-03-14T07:46:38;0.35;;;0.30;;
49123;SDS011;48506;48.202;16.274;2023-03-14T07:49:04;0.98;;;0.57;;
49123;SDS011;48506;48.202;16.274;2023-03-14T07:51:29;3.22;;;0.47;;
49123;SDS011;48506;48.202;16.274;2023-03-14T07:53:55;1.15;;;0.50;;
49123;SDS011;48506;48.202;16.274;2023-03-14T07:56:21;0.40;;;0.30;;
49123;SDS011;48506;48.202;16.274;2023-03-14T07:58:47;2.33;;;0.38;;
49123;SDS011;48506;48.202;16.274;2023-03-14T08:01:13;0.40;;;0.35;;
49123;SDS011;48506;48.202;16.274;2023-03-14T08:03:39;1.80;;;0.50;;
49123;SDS011;48506;48.202;16.274;2023-03-14T08:06:05;1.05;;;0.70;;
49123;SDS011;48506;48.202;16.274;2023-03-14T08:08:31;0.98;;;0.38;;
49123;SDS011;48506;48.202;16.274;2023-03-14T08:11:04;0.98;;;0.30;;
49123;SDS011;48506;48.202;16.274;2023-03-14T08:13:31;0.43;;;0.30;;
49123;SDS011;48506;48.202;16.274;2023-03-14T08:15:57;0.68;;;0.32;;
49123;SDS011;48506;48.202;16.274;2023-03-14T08:18:23;1.75;;;0.30;;
49123;SDS011;48506;48.202;16.274;2023-03-14T08:20:49;2.47;;;0.30;;
49123;SDS011;48506;48.202;16.274;2023-03-14T08:23:15;0.52;;;0.50;;
49123;SDS011;48506;48.202;16.274;2023-03-14T08:25:41;0.98;;;0.35;;
49123;SDS011;48506;48.202;16.274;2023-03-14T08:28:07;1.20;;;0.40;;
49123;SDS011;48506;48.202;16.274;2023-03-14T08:30:33;1.95;;;0.30;;
49123;SDS011;48506;48.202;16.274;2023-03-14T08:32:59;0.25;;;0.22;;
49123;SDS011;48506;48.202;16.274;2023-03-14T08:35:25;0.80;;;0.20;;
49123;SDS011;48506;48.202;16.274;2023-03-14T08:37:52;1.02;;;0.20;;
49123;SDS011;48506;48.202;16.274;2023-03-14T08:40:18;0.10;;;0.10;;
49123;SDS011;48506;48.202;16.274;2023-03-14T08:42:44;1.70;;;0.30;;
49123;SDS011;48506;48.202;16.274;2023-03-14T08:45:11;0.30;;;0.20;;
49123;SDS011;48506;48.202;16.274;2023-03-14T08:47:39;1.02;;;0.30;;
49123;SDS011;48506;48.202;16.274;2023-03-14T08:50:05;0.28;;;0.10;;
49123;SDS011;48506;48.202;16.274;2023-03-14T08:52:32;0.30;;;0.20;;
49123;SDS011;48506;48.202;16.274;2023-03-14T08:55:00;1.75;;;0.30;;
49123;SDS011;48506;48.202;16.274;2023-03-14T08:57:26;0.35;;;0.30;;
49123;SDS011;48506;48.202;16.274;2023-03-14T08:59:53;0.20;;;0.10;;
49123;SDS011;48506;48.202;16.274;2023-03-14T09:02:24;0.75;;;0.22;;
49123;SDS011;48506;48.202;16.274;2023-03-14T09:04:51;0.45;;;0.30;;
49123;SDS011;48506;48.202;16.274;2023-03-14T09:07:18;0.45;;;0.30;;
49123;SDS011;48506;48.202;16.274;2023-03-14T09:09:44;0.57;;;0.20;;
49123;SDS011;48506;48.202;16.274;2023-03-14T09:12:12;1.05;;;0.30;;
49123;SDS011;48506;48.202;16.274;2023-03-14T09:14:38;0.40;;;0.22;;
49123;SDS011;48506;48.202;16.274;2023-03-14T09:17:04;0.45;;;0.17;;
49123;SDS011;48506;48.202;16.274;2023-03-14T09:19:32;0.82;;;0.38;;
49123;SDS011;48506;48.202;16.274;2023-03-14T09:21:57;1.85;;;0.30;;
49123;SDS011;48506;48.202;16.274;2023-03-14T09:24:23;1.65;;;0.30;;
49123;SDS011;48506;48.202;16.274;2023-03-14T09:26:49;1.92;;;0.30;;
49123;SDS011;48506;48.202;16.274;2023-03-14T09:29:15;0.40;;;0.30;;
49123;SDS011;48506;48.202;16.274;2023-03-14T09:31:41;1.65;;;0.30;;
49123;SDS011;48506;48.202;16.274;2023-03-14T09:34:07;0.57;;;0.28;;
49123;SDS011;48506;48.202;16.274;2023-03-14T09:36:33;2.38;;;0.50;;
49123;SDS011;48506;48.202;16.274;2023-03-14T09:38:59;1.60;;;0.75;;
49123;SDS011;48506;48.202;16.274;2023-03-14T09:41:30;1.42;;;0.70;;
49123;SDS011;48506;48.202;16.274;2023-03-14T09:46:36;0.50;;;0.40;;
49123;SDS011;48506;48.202;16.274;2023-03-14T09:49:09;4.78;;;0.57;;
49123;SDS011;48506;48.202;16.274;2023-03-14T09:51:57;1.65;;;0.75;;
49123;SDS011;48506;48.202;16.274;2023-03-14T09:57:05;1.30;;;0.70;;
49123;SDS011;48506;48.202;16.274;2023-03-14T09:59:35;3.17;;;0.90;;
49123;SDS011;48506;48.202;16.274;2023-03-14T10:02:11;4.10;;;1.00;;
49123;SDS011;48506;48.202;16.274;2023-03-14T10:04:44;2.00;;;1.02;;
49123;SDS011;48506;48.202;16.274;2023-03-14T10:07:15;2.50;;;0.70;;
49123;SDS011;48506;48.202;16.274;2023-03-14T10:10:08;1.27;;;0.73;;
49123;SDS011;48506;48.202;16.274;2023-03-14T10:12:46;1.30;;;0.82;;
49123;SDS011;48506;48.202;16.274;2023-03-14T10:15:22;1.15;;;0.77;;
49123;SDS011;48506;48.202;16.274;2023-03-14T10:17:58;3.20;;;1.00;;
49123;SDS011;48506;48.202;16.274;2023-03-14T10:20:39;0.95;;;0.60;;
49123;SDS011;48506;48.202;16.274;2023-03-14T10:25:40;1.08;;;0.80;;
49123;SDS011;48506;48.202;16.274;2023-03-14T10:28:11;0.67;;;0.47;;
49123;SDS011;48506;48.202;16.274;2023-03-14T10:30:50;0.47;;;0.20;;
49123;SDS011;48506;48.202;16.274;2023-03-14T10:35:42;0.60;;;0.45;;
49123;SDS011;48506;48.202;16.274;2023-03-14T10:38:13;1.08;;;0.52;;
49123;SDS011;48506;48.202;16.274;2023-03-14T10:40:46;0.60;;;0.47;;
49123;SDS011;48506;48.202;16.274;2023-03-14T10:43:16;1.65;;;0.52;;
49123;SDS011;48506;48.202;16.274;2023-03-14T10:46:32;5.38;;;1.08;;
49123;SDS011;48506;48.202;16.274;2023-03-14T10:48:43;0.80;;;0.63;;
49123;SDS011;48506;48.202;16.274;2023-03-14T10:51:18;0.68;;;0.40;;
49123;SDS011;48506;48.202;16.274;2023-03-14T10:53:54;0.80;;;0.40;;
49123;SDS011;48506;48.202;16.274;2023-03-14T10:56:38;1.20;;;0.40;;
49123;SDS011;48506;48.202;16.274;2023-03-14T10:59:10;0.22;;;0.20;;
49123;SDS011;48506;48.202;16.274;2023-03-14T11:01:51;1.40;;;0.57;;
49123;SDS011;48506;48.202;16.274;2023-03-14T11:07:35;0.52;;;0.30;;
49123;SDS011;48506;48.202;16.274;2023-03-14T11:14:57;0.68;;;0.35;;
49123;SDS011;48506;48.202;16.274;2023-03-14T11:20:51;2.70;;;0.17;;
49123;SDS011;48506;48.202;16.274;2023-03-14T11:31:50;0.40;;;0.28;;
49123;SDS011;48506;48.202;16.274;2023-03-14T11:34:27;0.38;;;0.28;;
49123;SDS011;48506;48.202;16.274;2023-03-14T11:37:05;1.40;;;0.40;;
49123;SDS011;48506;48.202;16.274;2023-03-14T11:39:39;0.38;;;0.20;;
49123;SDS011;48506;48.202;16.274;2023-03-14T11:42:09;2.05;;;0.30;;
49123;SDS011;48506;48.202;16.274;2023-03-14T11:44:40;1.65;;;0.40;;
49123;SDS011;48506;48.202;16.274;2023-03-14T11:52:39;0.50;;;0.10;;
49123;SDS011;48506;48.202;16.274;2023-03-14T11:57:46;1.83;;;0.40;;
49123;SDS011;48506;48.202;16.274;2023-03-14T12:00:21;0.47;;;0.30;;
49123;SDS011;48506;48.202;16.274;2023-03-14T12:05:50;1.08;;;0.25;;
49123;SDS011;48506;48.202;16.274;2023-03-14T12:13:50;5.60;;;0.38;;
49123;SDS011;48506;48.202;16.274;2023-03-14T12:18:50;3.30;;;0.32;;
49123;SDS011;48506;48.202;16.274;2023-03-14T12:21:17;0.65;;;0.20;;
49123;SDS011;48506;48.202;16.274;2023-03-14T12:23:44;0.95;;;0.40;;
49123;SDS011;48506;48.202;16.274;2023-03-14T12:42:22;1.35;;;0.35;;
49123;SDS011;48506;48.202;16.274;2023-03-14T12:45:24;6.25;;;0.88;;
49123;SDS011;48506;48.202;16.274;2023-03-14T12:50:40;1.08;;;0.35;;
49123;SDS011;48506;48.202;16.274;2023-03-14T12:56:20;2.83;;;0.50;;
49123;SDS011;48506;48.202;16.274;2023-03-14T13:01:54;2.45;;;0.50;;
49123;SDS011;48506;48.202;16.274;2023-03-14T13:04:26;4.90;;;0.45;;
49123;SDS011;48506;48.202;16.274;2023-03-14T13:06:56;1.70;;;0.13;;
49123;SDS011;48506;48.202;16.274;2023-03-14T13:14:43;0.28;;;0.20;;
49123;SDS011;48506;48.202;16.274;2023-03-14T13:17:15;0.68;;;0.20;;
49123;SDS011;48506;48.202;16.274;2023-03-14T13:22:54;1.45;;;0.40;;
49123;SDS011;48506;48.202;16.274;2023-03-14T13:25:20;0.60;;;0.30;;
49123;SDS011;48506;48.202;16.274;2023-03-14T13:27:48;0.63;;;0.22;;
49123;SDS011;48506;48.202;16.274;2023-03-14T13:30:15;0.35;;;0.25;;
49123;SDS011;48506;48.202;16.274;2023-03-14T13:32:48;3.22;;;0.52;;
49123;SDS011;48506;48.202;16.274;2023-03-14T13:35:24;3.03;;;0.45;;
49123;SDS011;48506;48.202;16.274;2023-03-14T13:37:58;1.90;;;0.40;;
49123;SDS011;48506;48.202;16.274;2023-03-14T13:40:28;0.60;;;0.20;;
49123;SDS011;48506;48.202;16.274;2023-03-14T13:43:05;2.25;;;0.40;;
49123;SDS011;48506;48.202;16.274;2023-03-14T13:45:55;1.00;;;0.40;;
49123;SDS011;48506;48.202;16.274;2023-03-14T13:48:28;0.73;;;0.43;;
49123;SDS011;48506;48.202;16.274;2023-03-14T13:50:59;0.90;;;0.65;;
49123;SDS011;48506;48.202;16.274;2023-03-14T13:53:29;3.72;;;0.35;;
49123;SDS011;48506;48.202;16.274;2023-03-14T13:55:56;1.80;;;0.30;;
49123;SDS011;48506;48.202;16.274;2023-03-14T13:58:27;1.30;;;0.50;;
49123;SDS011;48506;48.202;16.274;2023-03-14T14:00:56;0.70;;;0.70;;
49123;SDS011;48506;48.202;16.274;2023-03-14T14:03:41;1.20;;;0.50;;
49123;SDS011;48506;48.202;16.274;2023-03-14T14:06:32;0.77;;;0.20;;
49123;SDS011;48506;48.202;16.274;2023-03-14T14:08:59;0.20;;;0.20;;
49123;SDS011;48506;48.202;16.274;2023-03-14T14:11:46;1.00;;;0.30;;
49123;SDS011;48506;48.202;16.274;2023-03-14T14:20:21;0.55;;;0.30;;
49123;SDS011;48506;48.202;16.274;2023-03-14T14:23:02;2.60;;;0.45;;
49123;SDS011;48506;48.202;16.274;2023-03-14T14:25:31;0.52;;;0.20;;
49123;SDS011;48506;48.202;16.274;2023-03-14T14:28:08;1.05;;;0.30;;
49123;SDS011;48506;48.202;16.274;2023-03-14T14:33:45;0.68;;;0.30;;
49123;SDS011;48506;48.202;16.274;2023-03-14T14:36:21;1.95;;;0.30;;
49123;SDS011;48506;48.202;16.274;2023-03-14T14:41:18;0.30;;;0.25;;
49123;SDS011;48506;48.202;16.274;2023-03-14T14:43:45;0.68;;;0.40;;
49123;SDS011;48506;48.202;16.274;2023-03-14T14:46:14;1.17;;;0.30;;
49123;SDS011;48506;48.202;16.274;2023-03-14T14:48:43;0.40;;;0.30;;
49123;SDS011;48506;48.202;16.274;2023-03-14T14:51:10;0.73;;;0.30;;
49123;SDS011;48506;48.202;16.274;2023-03-14T14:53:38;2.60;;;0.40;;
49123;SDS011;48506;48.202;16.274;2023-03-14T14:56:16;0.40;;;0.30;;
49123;SDS011;48506;48.202;16.274;2023-03-14T14:58:49;0.55;;;0.40;;
49123;SDS011;48506;48.202;16.274;2023-03-14T15:01:17;0.47;;;0.40;;
49123;SDS011;48506;48.202;16.274;2023-03-14T15:03:47;1.40;;;0.40;;
49123;SDS011;48506;48.202;16.274;2023-03-14T15:06:19;4.20;;;2.10;;
49123;SDS011;48506;48.202;16.274;2023-03-14T15:08:47;4.10;;;0.90;;
49123;SDS011;48506;48.202;16.274;2023-03-14T15:13:43;2.65;;;0.82;;
49123;SDS011;48506;48.202;16.274;2023-03-14T15:16:14;0.90;;;0.50;;
49123;SDS011;48506;48.202;16.274;2023-03-14T15:18:42;0.57;;;0.40;;
49123;SDS011;48506;48.202;16.274;2023-03-14T15:21:09;1.73;;;0.90;;
49123;SDS011;48506;48.202;16.274;2023-03-14T15:23:36;5.43;;;2.10;;
49123;SDS011;48506;48.202;16.274;2023-03-14T15:26:02;6.28;;;3.03;;
49123;SDS011;48506;48.202;16.274;2023-03-14T15:28:38;4.60;;;2.20;;
49123;SDS011;48506;48.202;16.274;2023-03-14T15:31:08;4.07;;;2.15;;
49123;SDS011;48506;48.202;16.274;2023-03-14T15:33:38;4.80;;;1.50;;
49123;SDS011;48506;48.202;16.274;2023-03-14T15:36:05;1.60;;;0.85;;
49123;SDS011;48506;48.202;16.274;2023-03-14T15:38:42;2.30;;;1.17;;
49123;SDS011;48506;48.202;16.274;2023-03-14T15:41:08;2.15;;;1.25;;
49123;SDS011;48506;48.202;16.274;2023-03-14T15:43:35;2.38;;;0.70;;
49123;SDS011;48506;48.202;16.274;2023-03-14T15:46:00;2.17;;;1.23;;
49123;SDS011;48506;48.202;16.274;2023-03-14T15:48:26;4.78;;;1.27;;
49123;SDS011;48506;48.202;16.274;2023-03-14T15:50:52;2.60;;;1.33;;
49123;SDS011;48506;48.202;16.274;2023-03-14T15:53:18;3.00;;;1.45;;
49123;SDS011;48506;48.202;16.274;2023-03-14T15:55:45;1.70;;;0.80;;
49123;SDS011;48506;48.202;16.274;2023-03-14T15:58:15;1.50;;;0.90;;
49123;SDS011;48506;48.202;16.274;2023-03-14T16:00:44;1.75;;;0.85;;
49123;SDS011;48506;48.202;16.274;2023-03-14T16:03:10;1.65;;;1.15;;
49123;SDS011;48506;48.202;16.274;2023-03-14T16:05:38;3.72;;;1.15;;
49123;SDS011;48506;48.202;16.274;2023-03-14T16:08:05;2.25;;;1.10;;
49123;SDS011;48506;48.202;16.274;2023-03-14T16:10:31;2.00;;;1.58;;
49123;SDS011;48506;48.202;16.274;2023-03-14T16:12:59;5.20;;;1.65;;
49123;SDS011;48506;48.202;16.274;2023-03-14T16:15:25;3.10;;;1.90;;
49123;SDS011;48506;48.202;16.274;2023-03-14T16:17:53;2.58;;;1.20;;
49123;SDS011;48506;48.202;16.274;2023-03-14T16:20:20;1.85;;;1.38;;
49123;SDS011;48506;48.202;16.274;2023-03-14T16:22:47;2.03;;;1.20;;
49123;SDS011;48506;48.202;16.274;2023-03-14T16:25:14;2.55;;;1.50;;